Time;durP1;ratioP1;P1;durP2;ratioP2;P2;SDS_P1;SDS_P2;PMS_P1;PMS_P2;Temp;Humidity;BMP_temperature;BMP_pressure;BME280_temperature;BME280_humidity;BME280_pressure;Samples;Min_cycle;Max_cycle;Signal;HPM_P1;HPM_P2
2023/04/29 00:00:51;;;;;;;9.73;7.68;;;10.90;99.90;;;;;;4649558;28;10000108;-71
2023/04/29 00:03:17;;;;;;;9.43;7.90;;;10.90;99.90;;;;;;5000864;28;20026;-72
2023/04/29 00:05:43;;;;;;;9.48;7.70;;;10.90;99.90;;;;;;5001848;28;20139;-71
2023/04/29 00:08:09;;;;;;;8.98;7.35;;;10.90;99.90;;;;;;5008340;28;20036;-72
2023/04/29 00:10:35;;;;;;;10.32;7.43;;;10.90;99.90;;;;;;5004599;28;20061;-73
2023/04/29 00:13:00;;;;;;;9.27;7.00;;;10.90;99.90;;;;;;5005423;28;20030;-72
2023/04/29 00:15:27;;;;;;;9.07;7.40;;;11.00;99.90;;;;;;4993826;28;20687;-72
2023/04/29 00:17:52;;;;;;;8.32;6.78;;;11.00;99.90;;;;;;4997650;28;20121;-72
2023/04/29 00:20:18;;;;;;;8.02;6.75;;;11.00;99.90;;;;;;4994740;28;20065;-72
2023/04/29 00:22:43;;;;;;;9.43;6.63;;;11.00;99.90;;;;;;5001212;28;20026;-73
2023/04/29 00:25:10;;;;;;;8.40;6.88;;;11.00;99.90;;;;;;5002739;28;20386;-72
2023/04/29 00:27:36;;;;;;;7.82;6.45;;;10.90;99.90;;;;;;4998804;28;20101;-72
2023/04/29 00:30:02;;;;;;;7.03;5.88;;;11.00;99.90;;;;;;5001606;28;20157;-71
2023/04/29 00:32:28;;;;;;;9.45;6.13;;;10.90;99.90;;;;;;4993636;28;20062;-72
2023/04/29 00:34:54;;;;;;;7.05;5.95;;;11.00;99.90;;;;;;5006627;28;20038;-72
2023/04/29 00:37:19;;;;;;;6.80;6.00;;;11.00;99.90;;;;;;5000874;28;20026;-73
2023/04/29 00:39:45;;;;;;;6.28;5.68;;;11.00;99.90;;;;;;4985746;28;20041;-72
2023/04/29 00:42:11;;;;;;;8.23;5.75;;;10.90;99.90;;;;;;5004233;28;20066;-73
2023/04/29 00:44:36;;;;;;;7.68;5.85;;;10.90;99.90;;;;;;4997172;28;20027;-72
2023/04/29 00:47:03;;;;;;;6.65;5.68;;;10.90;99.90;;;;;;5000163;28;20064;-71
2023/04/29 00:49:28;;;;;;;6.72;6.03;;;10.90;99.90;;;;;;5001510;28;20239;-71
2023/04/29 00:51:56;;;;;;;7.50;6.47;;;10.90;99.90;;;;;;5008490;28;20421;-72
2023/04/29 00:54:22;;;;;;;6.43;5.78;;;10.90;99.90;;;;;;5003744;28;20038;-73
2023/04/29 00:56:49;;;;;;;6.93;5.88;;;10.90;99.90;;;;;;5007001;28;20021;-72
2023/04/29 00:59:15;;;;;;;6.68;5.53;;;10.90;99.90;;;;;;5000731;28;20475;-72
2023/04/29 01:01:41;;;;;;;9.32;6.07;;;10.90;99.90;;;;;;5003465;28;20069;-73
2023/04/29 01:04:07;;;;;;;7.68;6.20;;;10.90;99.90;;;;;;5002754;28;20050;-73
2023/04/29 01:06:40;;;;;;;7.75;6.57;;;10.90;99.90;;;;;;5004585;28;20036;-71
2023/04/29 01:09:27;;;;;;;5.60;4.32;;;10.90;99.90;;;;;;4997290;28;20029;-72
2023/04/29 01:12:23;;;;;;;8.63;5.88;;;10.90;99.90;;;;;;5005438;28;20110;-72
2023/04/29 01:15:14;;;;;;;7.70;6.38;;;11.00;99.90;;;;;;4997882;28;20393;-71
2023/04/29 01:17:46;;;;;;;7.25;6.45;;;11.00;99.90;;;;;;4988478;28;20435;-72
2023/04/29 01:20:13;;;;;;;9.37;6.93;;;11.00;99.90;;;;;;5002371;28;20030;-72
2023/04/29 01:22:39;;;;;;;7.07;6.35;;;11.00;99.90;;;;;;5004754;28;20285;-72
2023/04/29 01:25:05;;;;;;;9.73;6.55;;;11.00;99.90;;;;;;4998298;28;20027;-72
2023/04/29 01:27:41;;;;;;;9.27;7.30;;;11.00;99.90;;;;;;5003873;28;20018;-72
2023/04/29 01:30:45;;;;;;;8.98;7.03;;;11.00;99.90;;;;;;4996964;28;20152;-72
2023/04/29 01:33:26;;;;;;;9.50;6.75;;;11.00;99.90;;;;;;5001395;28;20029;-72
2023/04/29 01:36:13;;;;;;;7.72;6.90;;;11.00;99.90;;;;;;5000206;28;20095;-72
2023/04/29 01:38:46;;;;;;;8.07;7.13;;;11.00;99.90;;;;;;4994321;28;20041;-72
2023/04/29 01:41:20;;;;;;;7.22;6.50;;;11.00;99.90;;;;;;4996955;28;20169;-72
2023/04/29 01:43:48;;;;;;;6.93;6.07;;;11.00;99.90;;;;;;4999376;28;20045;-73
2023/04/29 01:46:17;;;;;;;6.63;5.93;;;11.00;99.90;;;;;;4992802;28;20050;-72
2023/04/29 01:48:43;;;;;;;6.50;5.82;;;11.00;99.90;;;;;;4998714;28;20025;-72
2023/04/29 01:51:08;;;;;;;6.97;5.57;;;11.00;99.90;;;;;;5002695;28;20410;-72
2023/04/29 01:53:34;;;;;;;7.00;6.05;;;11.00;99.90;;;;;;5003880;28;20018;-73
2023/04/29 01:55:59;;;;;;;7.30;5.75;;;11.00;99.90;;;;;;4995713;28;20042;-72
2023/04/29 01:58:25;;;;;;;7.10;6.05;;;11.00;99.90;;;;;;4997336;28;20033;-73
2023/04/29 02:00:51;;;;;;;6.88;6.18;;;11.00;99.90;;;;;;4999935;28;20037;-73
2023/04/29 02:03:16;;;;;;;7.25;6.35;;;11.00;99.90;;;;;;5002967;28;20386;-73
2023/04/29 02:05:42;;;;;;;7.40;6.30;;;11.00;99.90;;;;;;5000022;28;20053;-72
2023/04/29 02:08:08;;;;;;;7.53;6.38;;;11.00;99.90;;;;;;4995114;28;20061;-72
2023/04/29 02:10:33;;;;;;;8.18;6.65;;;11.00;99.90;;;;;;4991546;28;20030;-72
2023/04/29 02:13:00;;;;;;;11.15;7.85;;;11.00;99.90;;;;;;4999985;28;20502;-73
2023/04/29 02:15:26;;;;;;;11.93;7.85;;;11.00;99.90;;;;;;4992566;28;20118;-73
2023/04/29 02:17:53;;;;;;;8.93;7.00;;;11.10;99.90;;;;;;4996123;28;20092;-73
2023/04/29 02:20:18;;;;;;;8.38;6.90;;;11.10;99.90;;;;;;4997634;28;20030;-72
2023/04/29 02:22:44;;;;;;;8.65;7.50;;;11.10;99.90;;;;;;5002090;28;20034;-72
2023/04/29 02:25:10;;;;;;;10.43;8.52;;;11.10;99.90;;;;;;4995380;28;20038;-72
2023/04/29 02:27:36;;;;;;;14.43;11.05;;;11.10;99.90;;;;;;4997955;28;20021;-72
2023/04/29 02:30:03;;;;;;;18.15;13.30;;;11.10;99.90;;;;;;4998748;28;20080;-71
2023/04/29 02:32:29;;;;;;;19.35;14.27;;;11.10;99.90;;;;;;4994898;28;20429;-72
2023/04/29 02:34:55;;;;;;;20.52;15.63;;;11.20;99.90;;;;;;5001136;28;20045;-71
2023/04/29 02:37:21;;;;;;;26.38;17.30;;;11.20;99.90;;;;;;4992909;28;20073;-72
2023/04/29 02:39:46;;;;;;;21.77;16.17;;;11.20;99.90;;;;;;4989405;28;20026;-72
2023/04/29 02:42:12;;;;;;;24.00;17.73;;;11.30;99.90;;;;;;4998575;28;20095;-73
2023/04/29 02:44:38;;;;;;;24.50;17.48;;;11.30;99.90;;;;;;4997357;28;20028;-72
2023/04/29 02:47:04;;;;;;;22.17;16.63;;;11.30;99.90;;;;;;4995445;28;20454;-72
2023/04/29 02:49:30;;;;;;;25.20;17.80;;;11.30;99.90;;;;;;4994941;28;20100;-72
2023/04/29 02:51:57;;;;;;;21.85;16.15;;;11.30;99.90;;;;;;4992433;28;20533;-72
2023/04/29 02:54:22;;;;;;;24.50;16.48;;;11.30;99.90;;;;;;4999310;28;20037;-71
2023/04/29 02:56:48;;;;;;;25.67;18.27;;;11.40;99.90;;;;;;4991301;28;20055;-72
2023/04/29 02:59:14;;;;;;;25.00;17.63;;;11.40;99.90;;;;;;4989378;28;20034;-72
2023/04/29 03:01:40;;;;;;;24.42;17.52;;;11.30;99.90;;;;;;4997004;28;20072;-72
2023/04/29 03:04:05;;;;;;;25.60;17.85;;;11.30;99.90;;;;;;4997066;28;20037;-72
2023/04/29 03:06:31;;;;;;;26.67;17.73;;;11.20;99.90;;;;;;4998692;28;20104;-72
2023/04/29 03:08:57;;;;;;;23.45;17.70;;;11.30;99.90;;;;;;4996555;28;20034;-72
2023/04/29 03:11:25;;;;;;;27.30;17.88;;;11.30;99.90;;;;;;4988925;28;20073;-73
2023/04/29 03:13:51;;;;;;;25.23;17.98;;;11.30;99.90;;;;;;5002124;28;20025;-72
2023/04/29 03:16:16;;;;;;;25.35;17.95;;;11.20;99.90;;;;;;5000886;28;20033;-72
2023/04/29 03:18:43;;;;;;;25.02;17.70;;;11.20;99.90;;;;;;5003785;28;20029;-73
2023/04/29 03:21:08;;;;;;;25.48;17.95;;;11.20;99.90;;;;;;4999478;28;20038;-72
2023/04/29 03:23:34;;;;;;;25.38;18.10;;;11.20;99.90;;;;;;5009101;28;20493;-72
2023/04/29 03:26:00;;;;;;;23.98;17.60;;;11.10;99.90;;;;;;5006869;28;20045;-72
2023/04/29 03:28:26;;;;;;;26.75;18.38;;;11.10;99.90;;;;;;4995959;28;20077;-72
2023/04/29 03:30:51;;;;;;;26.30;17.73;;;11.10;99.90;;;;;;4999519;28;20030;-72
2023/04/29 03:33:17;;;;;;;25.83;18.17;;;11.00;99.90;;;;;;5007895;28;20030;-73
2023/04/29 03:35:43;;;;;;;26.65;17.55;;;11.10;99.90;;;;;;5008521;28;20024;-71
2023/04/29 03:38:09;;;;;;;26.63;18.05;;;11.10;99.90;;;;;;5005178;28;20030;-71
2023/04/29 03:40:35;;;;;;;25.00;17.63;;;11.00;99.90;;;;;;4995921;28;20052;-71
2023/04/29 03:43:00;;;;;;;24.20;16.38;;;11.00;99.90;;;;;;4999272;28;20263;-72
2023/04/29 03:45:26;;;;;;;22.48;16.25;;;11.00;99.90;;;;;;4998458;28;20513;-71
2023/04/29 03:47:53;;;;;;;24.30;15.63;;;11.00;99.90;;;;;;5004480;28;20104;-72
2023/04/29 03:50:19;;;;;;;20.83;15.13;;;11.00;99.90;;;;;;4994218;28;20504;-72
2023/04/29 03:52:44;;;;;;;21.45;15.73;;;11.00;99.90;;;;;;5002984;28;20044;-72
2023/04/29 03:55:11;;;;;;;19.85;14.73;;;11.00;99.90;;;;;;5002610;28;20034;-72
2023/04/29 03:57:37;;;;;;;23.08;15.38;;;10.90;99.90;;;;;;4999822;28;20474;-72
2023/04/29 04:00:03;;;;;;;17.67;13.25;;;10.90;99.90;;;;;;4996490;28;20026;-72
2023/04/29 04:02:29;;;;;;;18.33;13.25;;;10.90;99.90;;;;;;4998001;28;20037;-72
2023/04/29 04:04:55;;;;;;;16.85;13.07;;;10.90;99.90;;;;;;5008411;28;20033;-71
2023/04/29 04:07:20;;;;;;;18.63;13.65;;;10.90;99.90;;;;;;5006353;28;20030;-72
2023/04/29 04:09:46;;;;;;;17.48;12.82;;;10.80;99.90;;;;;;5001068;28;20371;-71
2023/04/29 04:12:11;;;;;;;18.10;13.73;;;10.80;99.90;;;;;;5001339;28;20030;-71
2023/04/29 04:14:37;;;;;;;20.05;14.10;;;10.80;99.90;;;;;;4999355;28;20053;-71
2023/04/29 04:17:03;;;;;;;14.85;12.30;;;10.80;99.90;;;;;;4997799;28;20036;-72
2023/04/29 04:19:29;;;;;;;17.52;13.15;;;10.80;99.90;;;;;;5003680;28;20113;-71
2023/04/29 04:21:55;;;;;;;16.02;12.02;;;10.80;99.90;;;;;;5002476;28;20116;-71
2023/04/29 04:24:21;;;;;;;17.40;12.13;;;10.80;99.90;;;;;;5002048;28;20490;-72
2023/04/29 04:26:47;;;;;;;16.13;11.68;;;10.80;99.90;;;;;;5003596;28;20018;-72
2023/04/29 04:29:13;;;;;;;13.50;11.07;;;10.80;99.90;;;;;;4993490;28;20057;-72
2023/04/29 04:31:38;;;;;;;14.60;11.27;;;10.80;99.90;;;;;;5005089;28;20049;-72
2023/04/29 04:34:04;;;;;;;15.40;11.43;;;10.80;99.90;;;;;;4996231;28;20113;-72
2023/04/29 04:36:31;;;;;;;14.30;10.68;;;10.90;99.90;;;;;;4995463;28;20026;-71
2023/04/29 04:38:57;;;;;;;12.20;9.90;;;10.90;99.90;;;;;;5004973;28;20039;-72
2023/04/29 04:41:22;;;;;;;15.07;10.02;;;10.80;99.90;;;;;;5005403;28;20049;-72
2023/04/29 04:43:48;;;;;;;12.43;9.98;;;10.80;99.90;;;;;;4987962;28;20412;-72
2023/04/29 04:46:16;;;;;;;11.63;9.00;;;10.80;99.90;;;;;;4996332;28;20124;-71
2023/04/29 04:48:41;;;;;;;13.00;9.43;;;10.90;99.90;;;;;;5007643;28;20108;-71
2023/04/29 04:51:11;;;;;;;10.77;8.80;;;10.90;99.90;;;;;;5006155;28;20176;-71
2023/04/29 04:53:37;;;;;;;11.88;8.63;;;10.90;99.90;;;;;;5009020;28;20505;-71
2023/04/29 04:56:03;;;;;;;10.38;8.50;;;10.90;99.90;;;;;;5001197;28;20038;-71
2023/04/29 04:58:32;;;;;;;11.73;8.13;;;10.90;99.90;;;;;;5002270;28;20211;-71
2023/04/29 05:00:59;;;;;;;11.60;8.93;;;10.90;99.90;;;;;;5004174;28;20105;-71
2023/04/29 05:03:25;;;;;;;12.10;8.63;;;10.90;99.90;;;;;;5003948;28;20030;-71
2023/04/29 05:05:58;;;;;;;9.95;7.93;;;10.90;99.90;;;;;;4996734;28;20045;-71
2023/04/29 05:08:24;;;;;;;11.40;7.97;;;10.90;99.90;;;;;;4991080;28;20037;-73
2023/04/29 05:10:50;;;;;;;11.32;7.75;;;11.00;99.90;;;;;;5000557;28;20033;-71
2023/04/29 05:13:16;;;;;;;11.52;8.05;;;11.00;99.90;;;;;;4995764;28;20038;-71
2023/04/29 05:15:42;;;;;;;9.27;7.20;;;11.00;99.90;;;;;;4992573;28;20030;-71
2023/04/29 05:18:08;;;;;;;12.75;7.10;;;10.90;99.90;;;;;;4990839;28;20029;-71
2023/04/29 05:20:33;;;;;;;9.95;7.22;;;10.90;99.90;;;;;;4993718;28;20375;-71
2023/04/29 05:22:59;;;;;;;9.73;7.05;;;10.90;99.90;;;;;;5000077;28;20031;-71
2023/04/29 05:25:25;;;;;;;11.50;7.10;;;10.90;99.90;;;;;;4992121;28;20505;-71
2023/04/29 05:27:52;;;;;;;10.25;6.72;;;10.90;99.90;;;;;;4990273;28;20069;-70
2023/04/29 05:30:18;;;;;;;10.57;7.32;;;10.90;99.90;;;;;;4993069;28;20496;-71
2023/04/29 05:32:47;;;;;;;9.55;6.93;;;10.90;99.90;;;;;;4987137;28;20034;-72
2023/04/29 05:35:13;;;;;;;9.75;6.93;;;10.90;99.90;;;;;;4988670;28;20700;-71
2023/04/29 05:37:39;;;;;;;12.52;7.78;;;10.90;99.90;;;;;;4989984;28;20030;-71
2023/04/29 05:40:06;;;;;;;10.30;7.25;;;11.00;99.90;;;;;;4987752;28;20498;-72
2023/04/29 05:42:31;;;;;;;11.43;8.25;;;11.00;99.90;;;;;;4995054;28;20062;-71
2023/04/29 05:44:57;;;;;;;13.10;7.60;;;11.00;99.90;;;;;;4994798;28;20108;-70
2023/04/29 05:47:23;;;;;;;12.05;8.27;;;11.00;99.90;;;;;;4997880;28;20046;-71
2023/04/29 05:49:49;;;;;;;12.05;8.15;;;11.10;99.90;;;;;;4998974;28;20034;-71
2023/04/29 05:52:14;;;;;;;13.45;8.68;;;11.10;99.90;;;;;;5000283;28;20100;-71
2023/04/29 05:54:43;;;;;;;14.68;9.32;;;11.10;99.90;;;;;;4993712;28;20030;-71
2023/04/29 05:57:08;;;;;;;15.00;9.82;;;11.10;99.90;;;;;;4996584;28;20216;-71
2023/04/29 05:59:35;;;;;;;17.17;9.70;;;11.20;99.90;;;;;;4998400;28;20129;-71
2023/04/29 06:02:00;;;;;;;17.70;10.73;;;11.20;99.90;;;;;;4997193;28;20022;-72
2023/04/29 06:04:26;;;;;;;17.58;10.43;;;11.20;99.90;;;;;;4998238;28;20022;-70
2023/04/29 06:06:53;;;;;;;16.90;10.82;;;11.20;99.90;;;;;;4996349;28;20482;-70
2023/04/29 06:09:19;;;;;;;17.05;10.40;;;11.20;99.90;;;;;;4996496;28;20056;-71
2023/04/29 06:11:45;;;;;;;18.80;10.73;;;11.30;99.90;;;;;;4997115;28;20074;-71
2023/04/29 06:14:11;;;;;;;16.65;10.60;;;11.30;99.90;;;;;;5000810;28;20125;-70
2023/04/29 06:16:37;;;;;;;17.00;10.75;;;11.30;99.90;;;;;;4999436;28;20113;-70
2023/04/29 06:19:02;;;;;;;20.60;11.57;;;11.20;99.90;;;;;;4997573;28;20433;-71
2023/04/29 06:21:28;;;;;;;19.15;11.70;;;11.20;99.90;;;;;;4997154;28;20010;-70
2023/04/29 06:23:54;;;;;;;18.65;11.55;;;;;;;;;;4996320;28;20084;-70
2023/04/29 06:26:20;;;;;;;19.38;11.90;;;11.10;99.90;;;;;;4987516;28;20141;-71
2023/04/29 06:28:48;;;;;;;21.95;12.73;;;11.10;99.90;;;;;;4996701;28;20116;-71
2023/04/29 06:31:14;;;;;;;20.75;12.75;;;11.10;99.90;;;;;;4989024;28;20095;-69
2023/04/29 06:33:40;;;;;;;23.48;13.90;;;11.10;99.90;;;;;;5000093;28;20033;-69
2023/04/29 06:36:06;;;;;;;24.65;14.65;;;11.10;99.90;;;;;;4993577;28;20041;-69
2023/04/29 06:38:32;;;;;;;26.30;14.90;;;11.00;99.90;;;;;;4987320;28;20494;-70
2023/04/29 06:40:59;;;;;;;24.60;14.43;;;11.10;99.90;;;;;;4991442;28;20088;-70
2023/04/29 06:43:29;;;;;;;26.30;14.93;;;11.10;99.90;;;;;;4986059;28;20080;-71
2023/04/29 06:45:54;;;;;;;21.60;13.18;;;11.10;99.90;;;;;;4995047;28;20061;-70
2023/04/29 06:48:20;;;;;;;24.23;14.30;;;11.10;99.90;;;;;;4990903;28;20123;-69
2023/04/29 06:50:56;;;;;;;25.40;15.13;;;11.10;99.90;;;;;;4987345;28;20034;-72
2023/04/29 06:53:23;;;;;;;25.27;14.75;;;11.10;99.90;;;;;;4992481;28;20026;-70
2023/04/29 06:55:49;;;;;;;22.42;13.55;;;11.10;99.90;;;;;;4994439;28;20133;-72
2023/04/29 06:58:15;;;;;;;23.85;14.68;;;11.10;99.90;;;;;;4989410;28;20120;-73
2023/04/29 07:00:49;;;;;;;24.10;14.30;;;11.10;99.90;;;;;;4989027;28;20088;-72
2023/04/29 07:03:15;;;;;;;;;;;11.20;99.90;;;;;;4996554;28;20030;-72
2023/04/29 07:05:41;;;;;;;25.17;13.80;;;11.10;99.90;;;;;;4994305;28;19948;-72
2023/04/29 07:08:09;;;;;;;24.10;13.95;;;11.20;99.90;;;;;;4988370;28;20030;-71
2023/04/29 07:10:34;;;;;;;22.70;13.57;;;11.10;99.90;;;;;;4978936;28;20080;-71
2023/04/29 07:13:00;;;;;;;20.58;12.55;;;11.10;99.90;;;;;;4990737;28;20045;-72
2023/04/29 07:15:26;;;;;;;20.58;12.85;;;11.10;99.90;;;;;;4985179;28;20505;-72
2023/04/29 07:17:52;;;;;;;20.67;12.73;;;11.10;99.90;;;;;;4974586;28;20041;-71
2023/04/29 07:20:19;;;;;;;17.52;12.02;;;11.10;99.90;;;;;;4984712;28;20030;-71
2023/04/29 07:22:44;;;;;;;18.48;11.85;;;11.00;99.90;;;;;;4990292;28;20038;-71
2023/04/29 07:25:10;;;;;;;17.33;12.35;;;11.00;99.90;;;;;;4995252;28;20026;-71
2023/04/29 07:27:35;;;;;;;19.45;10.80;;;10.90;99.90;;;;;;4980478;28;20483;-72
2023/04/29 07:30:02;;;;;;;16.42;11.20;;;10.90;99.90;;;;;;4983502;28;20509;-73
2023/04/29 07:32:30;;;;;;;16.70;11.25;;;10.90;99.90;;;;;;4990796;28;20081;-71
2023/04/29 07:34:56;;;;;;;14.82;9.73;;;10.90;99.90;;;;;;4989270;28;21382;-71
2023/04/29 07:37:22;;;;;;;16.20;10.90;;;10.90;99.90;;;;;;4986501;28;20045;-71
2023/04/29 07:39:47;;;;;;;15.75;9.75;;;10.90;99.90;;;;;;4998583;28;20081;-72
2023/04/29 07:42:13;;;;;;;14.93;10.00;;;10.90;99.90;;;;;;4996234;28;20041;-71
2023/04/29 07:44:39;;;;;;;13.93;9.95;;;10.90;99.90;;;;;;4978815;28;20475;-71
2023/04/29 07:47:04;;;;;;;14.93;9.63;;;11.00;99.90;;;;;;4983711;28;20441;-72
2023/04/29 07:49:30;;;;;;;16.48;10.10;;;11.00;99.90;;;;;;4987556;28;20033;-72
2023/04/29 07:51:56;;;;;;;16.92;10.43;;;11.00;99.90;;;;;;4995940;28;20037;-71
2023/04/29 07:54:22;;;;;;;14.85;10.20;;;11.00;99.90;;;;;;4984517;28;20037;-72
2023/04/29 07:56:48;;;;;;;16.83;10.75;;;11.00;99.90;;;;;;4989540;28;20037;-71
2023/04/29 07:59:13;;;;;;;15.50;10.82;;;11.00;99.90;;;;;;4986430;28;20042;-72
2023/04/29 08:01:42;;;;;;;16.15;10.38;;;11.00;99.90;;;;;;4989962;28;20018;-71
2023/04/29 08:04:07;;;;;;;15.95;10.07;;;11.00;99.90;;;;;;4986859;28;20241;-72
2023/04/29 08:06:34;;;;;;;15.88;9.88;;;11.00;99.90;;;;;;4987529;28;20139;-72
2023/04/29 08:09:00;;;;;;;17.08;10.23;;;11.00;99.90;;;;;;4989617;28;20026;-74
2023/04/29 08:11:26;;;;;;;15.43;10.13;;;11.10;99.90;;;;;;4992131;28;20108;-74
2023/04/29 08:13:52;;;;;;;16.33;9.85;;;11.10;99.90;;;;;;5005278;28;20125;-74
2023/04/29 08:16:18;;;;;;;13.70;9.63;;;11.20;99.90;;;;;;4997733;28;20094;-74
2023/04/29 08:18:43;;;;;;;11.95;8.43;;;11.20;99.90;;;;;;5000732;28;20034;-74
2023/04/29 08:21:12;;;;;;;12.32;8.48;;;11.30;99.90;;;;;;5004492;28;20029;-74
2023/04/29 08:23:38;;;;;;;13.95;9.32;;;11.30;99.90;;;;;;5002546;28;20031;-73
2023/04/29 08:26:04;;;;;;;13.70;8.27;;;11.30;99.90;;;;;;5002896;28;20053;-74
2023/04/29 08:28:30;;;;;;;11.32;8.00;;;11.40;99.90;;;;;;4998961;28;20475;-74
2023/04/29 08:30:55;;;;;;;12.13;8.45;;;11.50;99.90;;;;;;5006033;28;20029;-74
2023/04/29 08:33:21;;;;;;;10.98;7.97;;;11.50;99.90;;;;;;5001939;28;20492;-73
2023/04/29 08:35:47;;;;;;;10.82;7.38;;;11.50;99.90;;;;;;4996589;28;20460;-74
2023/04/29 08:38:13;;;;;;;10.88;8.10;;;11.60;99.90;;;;;;5000945;28;20470;-73
2023/04/29 08:40:45;;;;;;;10.15;7.40;;;11.60;99.90;;;;;;5006346;28;20026;-74
2023/04/29 08:43:13;;;;;;;8.80;6.28;;;11.60;99.90;;;;;;5004307;28;20029;-73
2023/04/29 08:45:40;;;;;;;11.13;7.90;;;11.70;99.90;;;;;;5007079;28;20033;-73
2023/04/29 08:48:06;;;;;;;10.98;8.13;;;11.80;99.90;;;;;;5001673;28;20029;-73
2023/04/29 08:50:37;;;;;;;11.60;8.48;;;11.80;99.90;;;;;;4998113;28;20037;-77
2023/04/29 08:53:03;;;;;;;10.25;8.02;;;;;;;;;;4993489;28;20564;-76
2023/04/29 08:55:30;;;;;;;11.02;8.25;;;;;;;;;;4991186;28;22444;-76
2023/04/29 08:57:56;;;;;;;10.60;8.15;;;;;;;;;;4994154;28;20026;-77
2023/04/29 09:00:22;;;;;;;14.55;8.98;;;;;;;;;;4988734;28;20037;-77
2023/04/29 09:02:53;;;;;;;11.95;9.30;;;;;;;;;;5001491;28;20056;-76
2023/04/29 09:05:19;;;;;;;12.40;9.27;;;;;;;;;;4995828;28;20281;-76
2023/04/29 09:07:45;;;;;;;12.90;9.35;;;;;;;;;;4991314;28;20175;-76
2023/04/29 09:10:11;;;;;;;13.18;9.63;;;;;;;;;;4987584;28;20073;-76
2023/04/29 09:12:38;;;;;;;12.98;9.80;;;;;;;;;;4980312;28;20030;-76
2023/04/29 09:15:04;;;;;;;15.05;10.57;;;;;;;;;;4997548;28;20050;-76
2023/04/29 09:17:40;;;;;;;12.23;10.10;;;;;;;;;;4983522;28;20057;-76
2023/04/29 09:20:27;;;;;;;16.88;12.10;;;;;;;;;;4987672;28;20037;-76
2023/04/29 09:22:54;;;;;;;16.58;11.45;;;;;;;;;;4993239;28;20033;-74
2023/04/29 09:25:20;;;;;;;14.27;11.02;;;;;;;;;;4994012;28;20046;-74
2023/04/29 09:27:47;;;;;;;14.70;11.10;;;;;;;;;;4983198;28;20532;-75
2023/04/29 09:30:15;;;;;;;14.00;11.02;;;;;;;;;;4986257;28;20111;-76
2023/04/29 09:32:41;;;;;;;15.27;10.77;;;;;;;;;;4987949;28;20536;-73
2023/04/29 09:35:26;;;;;;;16.52;11.90;;;;;;;;;;4991008;28;20422;-76
2023/04/29 09:37:53;;;;;;;15.45;11.18;;;;;;;;;;4989678;28;20052;-75
2023/04/29 09:40:31;;;;;;;14.75;11.63;;;;;;;;;;4994456;28;20558;-75
2023/04/29 09:43:01;;;;;;;15.07;11.32;;;;;;;;;;4992394;28;20018;-75
2023/04/29 09:45:33;;;;;;;15.52;12.27;;;;;;;;;;4994090;28;20332;-74
2023/04/29 09:48:03;;;;;;;17.63;12.43;;;;;;;;;;4995585;28;20042;-72
2023/04/29 09:50:29;;;;;;;16.00;11.88;;;;;;;;;;4993462;28;20506;-74
2023/04/29 09:52:56;;;;;;;16.17;11.85;;;;;;;;;;4986447;28;20030;-73
2023/04/29 09:55:22;;;;;;;16.90;12.27;;;;;;;;;;4996551;28;20044;-74
2023/04/29 09:57:48;;;;;;;15.57;12.15;;;;;;;;;;5000995;28;20029;-74
2023/04/29 10:00:14;;;;;;;16.83;12.23;;;;;;;;;;4996392;28;20032;-74
2023/04/29 10:02:49;;;;;;;18.42;13.45;;;;;;;;;;4982614;28;20032;-75
2023/04/29 10:05:16;;;;;;;16.30;12.20;;;;;;;;;;4995957;28;20026;-74
2023/04/29 10:07:42;;;;;;;16.02;12.48;;;;;;;;;;4993944;28;20038;-74
2023/04/29 10:10:10;;;;;;;18.98;14.48;;;;;;;;;;4999606;28;20108;-74
2023/04/29 10:12:39;;;;;;;18.73;13.90;;;;;;;;;;4996810;28;20022;-74
2023/04/29 10:15:11;;;;;;;19.50;14.48;;;;;;;;;;4994948;28;20060;-76
2023/04/29 10:17:46;;;;;;;20.88;15.48;;;;;;;;;;4998575;28;20036;-75
2023/04/29 10:20:21;;;;;;;20.70;14.48;;;;;;;;;;4993525;28;20499;-73
2023/04/29 10:22:48;;;;;;;20.92;15.60;;;;;;;;;;4989210;28;20375;-74
2023/04/29 10:25:15;;;;;;;20.65;15.85;;;;;;;;;;4998755;28;20034;-74
2023/04/29 10:27:43;;;;;;;22.75;15.18;;;;;;;;;;4997526;28;20026;-74
2023/04/29 10:30:11;;;;;;;21.58;15.43;;;;;;;;;;4998540;28;20040;-74
2023/04/29 10:32:40;;;;;;;21.98;15.88;;;;;;;;;;4993233;28;20371;-74
2023/04/29 10:35:08;;;;;;;22.40;15.10;;;;;;;;;;4993128;28;20038;-74
2023/04/29 10:37:35;;;;;;;22.33;15.75;;;;;;;;;;4986567;28;20449;-74
2023/04/29 10:40:07;;;;;;;21.27;15.70;;;;;;;;;;4989502;28;20080;-74
2023/04/29 10:42:40;;;;;;;26.90;16.57;;;;;;;;;;4994612;28;20029;-74
2023/04/29 10:45:26;;;;;;;22.27;16.25;;;;;;;;;;4991650;28;20029;-74
2023/04/29 10:48:01;;;;;;;25.95;17.13;;;;;;;;;;4997165;28;20029;-73
2023/04/29 10:50:46;;;;;;;24.00;16.60;;;;;;;;;;4993176;28;20030;-74
2023/04/29 10:53:13;;;;;;;20.58;15.57;;;;;;;;;;4987325;28;20062;-73
2023/04/29 10:55:39;;;;;;;21.75;16.20;;;;;;;;;;4975383;28;20088;-74
2023/04/29 10:58:05;;;;;;;21.65;15.18;;;;;;;;;;4991536;28;20129;-73
2023/04/29 11:00:32;;;;;;;21.98;16.88;;;;;;;;;;4989965;28;20041;-75
2023/04/29 11:02:59;;;;;;;20.65;15.90;;;;;;;;;;4993396;28;20056;-75
2023/04/29 11:05:33;;;;;;;23.35;16.02;;;;;;;;;;4989006;28;20557;-76
2023/04/29 11:07:58;;;;;;;;;;;;;;;;;;4989527;28;20073;-76
2023/04/29 11:10:35;;;;;;;22.73;16.10;;;;;;;;;;4992173;28;19913;-76
2023/04/29 11:13:20;;;;;;;22.58;16.67;;;;;;;;;;4992348;28;20060;-79
2023/04/29 11:15:46;;;;;;;23.00;16.45;;;;;;;;;;4992936;28;20037;-75
2023/04/29 11:18:12;;;;;;;24.38;15.63;;;;;;;;;;4989150;28;20038;-76
2023/04/29 11:20:57;;;;;;;21.25;16.13;;;;;;;;;;4988662;28;20160;-75
2023/04/29 11:23:24;;;;;;;21.25;16.30;;;;;;;;;;4982336;28;20640;-76
2023/04/29 11:25:50;;;;;;;22.88;16.42;;;;;;;;;;4980150;28;20018;-76
2023/04/29 11:28:17;;;;;;;25.00;18.00;;;;;;;;;;4985845;28;20151;-76
2023/04/29 11:30:45;;;;;;;25.33;17.38;;;;;;;;;;4991403;28;20401;-77
2023/04/29 11:33:11;;;;;;;22.92;17.73;;;;;;;;;;4993863;28;20034;-76
2023/04/29 11:35:39;;;;;;;26.02;17.83;;;;;;;;;;4999060;28;20103;-76
2023/04/29 11:38:06;;;;;;;20.88;16.35;;;;;;;;;;4999812;28;20112;-76
2023/04/29 11:40:32;;;;;;;22.98;17.23;;;;;;;;;;4998136;28;20449;-76
2023/04/29 11:42:58;;;;;;;25.45;17.88;;;;;;;;;;5005116;28;20026;-75
2023/04/29 11:45:25;;;;;;;24.50;17.95;;;;;;;;;;4990701;28;20544;-76
2023/04/29 11:47:51;;;;;;;23.73;18.23;;;;;;;;;;4999125;28;20508;-76
2023/04/29 11:50:18;;;;;;;23.67;16.85;;;;;;;;;;5002401;28;20025;-76
2023/04/29 11:52:46;;;;;;;21.80;16.77;;;;;;;;;;4993513;28;20125;-75
2023/04/29 11:55:13;;;;;;;22.77;16.55;;;;;;;;;;4996177;28;20156;-76
2023/04/29 11:57:39;;;;;;;28.45;19.17;;;;;;;;;;4992697;28;20026;-75
2023/04/29 12:00:12;;;;;;;24.02;17.58;;;;;;;;;;4996466;28;20278;-76
2023/04/29 12:02:39;;;;;;;22.75;17.20;;;;;;;;;;4995804;28;20030;-76
2023/04/29 12:05:06;;;;;;;23.65;17.52;;;;;;;;;;4991468;28;20470;-76
2023/04/29 12:07:32;;;;;;;23.40;17.38;;;;;;;;;;4989113;28;20489;-76
2023/04/29 12:09:58;;;;;;;22.58;16.63;;;;;;;;;;4998640;28;20224;-76
2023/04/29 12:12:26;;;;;;;21.45;15.98;;;;;;;;;;4992902;28;20119;-76
2023/04/29 12:14:53;;;;;;;21.27;16.63;;;;;;;;;;4993120;28;20030;-76
2023/04/29 12:17:20;;;;;;;19.58;15.95;;;;;;;;;;4994959;28;20414;-76
2023/04/29 12:19:47;;;;;;;21.05;15.70;;;;;;;;;;4992146;28;20343;-76
2023/04/29 12:22:13;;;;;;;22.50;15.55;;;;;;;;;;4986153;28;20362;-74
2023/04/29 12:24:40;;;;;;;18.55;14.52;;;;;;;;;;5000611;28;20029;-76
2023/04/29 12:27:09;;;;;;;16.80;13.63;;;;;;;;;;4995844;28;20026;-75
2023/04/29 12:29:36;;;;;;;19.35;14.88;;;;;;;;;;4986910;28;20325;-76
2023/04/29 12:32:02;;;;;;;19.30;14.73;;;;;;;;;;4986710;28;20696;-75
2023/04/29 12:34:29;;;;;;;19.70;15.70;;;;;;;;;;4990384;28;20569;-76
2023/04/29 12:36:56;;;;;;;17.48;14.93;;;;;;;;;;4992111;28;20034;-75
2023/04/29 12:39:22;;;;;;;19.55;15.45;;;;;;;;;;4996250;28;20038;-73
2023/04/29 12:41:48;;;;;;;18.48;14.98;;;;;;;;;;4991186;28;20032;-73
2023/04/29 12:44:15;;;;;;;21.83;16.48;;;;;;;;;;4990232;28;20034;-74
2023/04/29 12:46:41;;;;;;;18.38;15.05;;;;;;;;;;4992710;28;20054;-76
2023/04/29 12:49:07;;;;;;;20.52;15.15;;;;;;;;;;4994685;28;20026;-75
2023/04/29 12:51:34;;;;;;;22.13;15.60;;;;;;;;;;4993597;28;20551;-74
2023/04/29 12:54:06;;;;;;;18.40;14.95;;;;;;;;;;4990370;28;20113;-74
2023/04/29 12:56:32;;;;;;;17.15;13.75;;;;;;;;;;4994788;28;20423;-74
2023/04/29 12:59:06;;;;;;;20.92;15.40;;;;;;;;;;4998351;28;20032;-73
2023/04/29 13:01:32;;;;;;;19.80;15.73;;;;;;;;;;4996024;28;20065;-74
2023/04/29 13:03:58;;;;;;;22.08;16.15;;;;;;;;;;5002219;28;20033;-73
2023/04/29 13:06:24;;;;;;;21.25;16.85;;;;;;;;;;4996624;28;20030;-74
2023/04/29 13:08:50;;;;;;;20.73;16.88;;;;;;;;;;4997745;28;20033;-73